createdAt,value
2019-02-22T00:01:22.864Z,100164.22
2019-02-22T00:04:36.328Z,100161.96
2019-02-22T00:07:49.814Z,100173.23
2019-02-22T00:11:03.399Z,100182.27
2019-02-22T00:14:16.847Z,100176.47
2019-02-22T00:17:30.720Z,100183.64
2019-02-22T00:20:44.188Z,100181.69
2019-02-22T00:23:57.704Z,100180.08
2019-02-22T00:27:11.301Z,100188.09
2019-02-22T00:30:24.738Z,100181.26
2019-02-22T00:33:38.534Z,100183.43
2019-02-22T00:36:52.183Z,100190.02
2019-02-22T00:43:37.847Z,100195.30
2019-02-22T00:46:51.304Z,100194.75
2019-02-22T00:50:05.170Z,100198.59
2019-02-22T00:53:18.640Z,100205.33
2019-02-22T00:56:32.095Z,100202.44
2019-02-22T00:59:45.574Z,100197.67
2019-02-22T01:02:59.038Z,100201.85
2019-02-22T01:06:12.497Z,100200.02
2019-02-22T01:09:25.971Z,100202.23
2019-02-22T01:12:39.798Z,100202.77
2019-02-22T01:15:53.196Z,100208.03
2019-02-22T01:19:06.662Z,100217.64
2019-02-22T01:22:20.126Z,100208.50
2019-02-22T01:25:34.043Z,100206.63
2019-02-22T01:28:47.820Z,100212.27
2019-02-22T01:32:01.352Z,100212.59
2019-02-22T01:35:14.924Z,100220.22
2019-02-22T01:38:28.392Z,100218.52
2019-02-22T01:41:42.208Z,100219.61
2019-02-22T01:44:55.682Z,100231.05
2019-02-22T01:48:09.154Z,100225.16
2019-02-22T01:51:22.717Z,100222.08
2019-02-22T01:54:36.309Z,100216.40
2019-02-22T01:57:49.779Z,100223.25
2019-02-22T02:01:03.876Z,100231.05
2019-02-22T02:04:17.381Z,100231.81
2019-02-22T02:07:30.874Z,100236.91
2019-02-22T02:10:53.907Z,100236.72
2019-02-22T02:13:59.841Z,100238.33
2019-02-22T02:17:13.671Z,100238.47
2019-02-22T02:20:27.250Z,100243.13
2019-02-22T02:23:40.995Z,100238.03
2019-02-22T02:26:54.571Z,100235.62
2019-02-22T02:30:09.039Z,100237.21
2019-02-22T02:33:22.520Z,100230.68
2019-02-22T02:36:36.413Z,100231.14
2019-02-22T02:39:49.885Z,100228.02
2019-02-22T02:43:03.503Z,100234.52
2019-02-22T02:46:17.040Z,100238.88
2019-02-22T02:49:30.507Z,100234.72
2019-02-22T02:52:44.011Z,100235.73
2019-02-22T02:55:57.475Z,100243.73
2019-02-22T02:59:11.049Z,100236.03
2019-02-22T03:02:26.749Z,100240.70
2019-02-22T03:06:06.189Z,100240.36
2019-02-22T03:09:20.085Z,100248.30
2019-02-22T03:12:33.568Z,100240.05
2019-02-22T03:15:47.089Z,100252.23
2019-02-22T03:19:00.536Z,100244.08
2019-02-22T03:22:14.020Z,100243.33
2019-02-22T03:25:27.494Z,100239.41
2019-02-22T03:28:40.955Z,100252.10
2019-02-22T03:31:54.419Z,100254.37
2019-02-22T03:35:07.984Z,100265.55
2019-02-22T03:38:21.759Z,100262.23
2019-02-22T03:41:35.250Z,100261.47
2019-02-22T03:44:48.829Z,100259.16
2019-02-22T03:48:02.692Z,100254.80
2019-02-22T03:51:16.166Z,100257.84
2019-02-22T03:54:29.827Z,100272.57
2019-02-22T03:57:43.516Z,100270.66
2019-02-22T04:00:57.227Z,100272.02
2019-02-22T04:04:10.794Z,100277.34
2019-02-22T04:07:24.250Z,100280.25
2019-02-22T04:10:37.708Z,100282.49
2019-02-22T04:13:51.597Z,100284.83
2019-02-22T04:17:05.074Z,100283.08
2019-02-22T04:20:18.634Z,100280.11
2019-02-22T04:23:32.103Z,100277.95
2019-02-22T04:26:45.798Z,100277.86
2019-02-22T04:29:59.270Z,100272.94
2019-02-22T04:33:12.753Z,100275.69
2019-02-22T04:36:26.494Z,100281.30
2019-02-22T04:39:40.309Z,100284.77
2019-02-22T04:42:53.748Z,100289.68
2019-02-22T04:46:07.224Z,100294.22
2019-02-22T04:49:21.055Z,100289.68
2019-02-22T04:52:34.523Z,100292.94
2019-02-22T04:55:48.298Z,100295.12
2019-02-22T04:59:01.775Z,100294.77
2019-02-22T05:02:15.316Z,100300.48
2019-02-22T05:05:28.723Z,100298.95
2019-02-22T05:08:42.202Z,100296.95
2019-02-22T05:11:55.666Z,100303.26
2019-02-22T05:15:12.811Z,100303.29
2019-02-22T05:18:24.840Z,100317.23
2019-02-22T05:21:38.593Z,100315.41
2019-02-22T05:24:52.062Z,100319.73
2019-02-22T05:28:05.550Z,100319.73
2019-02-22T05:31:19.257Z,100310.05
2019-02-22T05:34:32.731Z,100319.11
2019-02-22T05:37:46.806Z,100315.05
2019-02-22T05:41:00.270Z,100312.25
2019-02-22T05:44:14.063Z,100307.30
2019-02-22T05:47:27.540Z,100312.22
2019-02-22T05:50:41.251Z,100329.60
2019-02-22T05:53:54.761Z,100336.56
2019-02-22T05:57:08.324Z,100342.36
2019-02-22T06:00:21.885Z,100344.86
2019-02-22T06:03:35.359Z,100351.63
2019-02-22T06:06:48.830Z,100362.16
2019-02-22T06:10:02.693Z,100374.18
2019-02-22T06:13:16.157Z,100385.97
2019-02-22T06:16:29.988Z,100392.02
2019-02-22T06:19:43.462Z,100397.81
2019-02-22T06:22:56.928Z,100406.72
2019-02-22T06:26:10.709Z,100408.88
2019-02-22T06:29:24.463Z,100414.91
2019-02-22T06:32:38.031Z,100420.23
2019-02-22T06:35:51.504Z,100431.55
2019-02-22T06:39:05.459Z,100436.48
2019-02-22T06:42:18.934Z,100427.19
2019-02-22T06:45:32.415Z,100428.55
2019-02-22T06:48:45.863Z,100435.89
2019-02-22T06:51:59.342Z,100430.77
2019-02-22T06:55:13.128Z,100438.45
2019-02-22T06:58:27.252Z,100438.16
2019-02-22T07:01:40.727Z,100439.56
2019-02-22T07:04:54.199Z,100449.61
2019-02-22T07:08:07.683Z,100457.18
2019-02-22T07:11:44.442Z,100453.66
2019-02-22T07:14:57.952Z,100467.34
2019-02-22T07:18:11.438Z,100471.78
2019-02-22T07:21:24.921Z,100467.84
2019-02-22T07:24:38.410Z,100468.63
2019-02-22T07:27:51.846Z,100465.05
2019-02-22T07:31:05.421Z,100461.84
2019-02-22T07:34:18.885Z,100452.34
2019-02-22T07:37:32.835Z,100460.64
2019-02-22T07:40:46.325Z,100461.83
2019-02-22T07:43:59.905Z,100463.89
2019-02-22T07:47:13.371Z,100479.39
2019-02-22T07:50:26.900Z,100480.26
2019-02-22T07:53:40.476Z,100493.16
2019-02-22T07:56:53.952Z,100483.52
2019-02-22T08:03:29.582Z,100483.49
2019-02-22T08:06:43.173Z,100482.28
2019-02-22T08:09:56.970Z,100481.72
2019-02-22T08:13:19.233Z,100487.50
2019-02-22T08:16:26.146Z,100490.42
2019-02-22T08:19:39.752Z,100497.27
2019-02-22T08:22:53.219Z,100490.61
2019-02-22T08:26:07.007Z,100501.95
2019-02-22T08:29:20.472Z,100506.45
2019-02-22T08:32:34.121Z,100509.08
2019-02-22T08:35:47.847Z,100515.28
2019-02-22T08:39:01.300Z,100513.65
2019-02-22T08:42:14.854Z,100509.06
2019-02-22T08:45:28.316Z,100505.31
2019-02-22T08:48:42.069Z,100518.77
2019-02-22T08:51:55.599Z,100522.04
2019-02-22T08:55:09.529Z,100518.87
2019-02-22T08:58:23.327Z,100519.91
2019-02-22T09:01:36.793Z,100529.43
2019-02-22T09:04:50.261Z,100537.39
2019-02-22T09:08:04.284Z,100534.60
2019-02-22T09:11:17.745Z,100537.42
2019-02-22T09:14:31.196Z,100536.15
2019-02-22T09:17:44.654Z,100537.36
2019-02-22T09:20:58.112Z,100543.42
2019-02-22T09:24:11.671Z,100549.61
2019-02-22T09:27:25.448Z,100551.67
2019-02-22T09:30:39.005Z,100535.48
2019-02-22T09:33:52.784Z,100544.57
2019-02-22T09:37:06.265Z,100553.41
2019-02-22T09:40:19.726Z,100568.52
2019-02-22T09:43:33.196Z,100564.59
2019-02-22T09:46:46.638Z,100556.17
2019-02-22T09:50:00.442Z,100568.42
2019-02-22T09:53:14.020Z,100578.95
2019-02-22T09:56:27.480Z,100578.34
2019-02-22T09:59:41.384Z,100576.72
2019-02-22T10:02:55.139Z,100564.28
2019-02-22T10:06:08.866Z,100568.81
2019-02-22T10:09:22.340Z,100571.38
2019-02-22T10:12:36.475Z,100573.45
2019-02-22T10:15:50.057Z,100569.72
2019-02-22T10:19:03.879Z,100564.91
2019-02-22T10:22:17.621Z,100563.77
2019-02-22T10:25:31.084Z,100569.13
2019-02-22T10:28:44.555Z,100576.47
2019-02-22T10:31:58.701Z,100581.34
2019-02-22T10:35:12.122Z,100576.67
2019-02-22T10:38:26.064Z,100575.53
2019-02-22T10:41:39.534Z,100570.30
2019-02-22T10:44:53.263Z,100581.09
2019-02-22T10:48:06.724Z,100580.14
2019-02-22T10:51:20.285Z,100577.74
2019-02-22T10:54:33.765Z,100589.39
2019-02-22T10:57:47.229Z,100590.88
2019-02-22T11:01:00.791Z,100596.98
2019-02-22T11:04:14.264Z,100593.07
2019-02-22T11:07:27.722Z,100592.54
2019-02-22T11:10:41.200Z,100591.16
2019-02-22T11:13:54.816Z,100592.97
2019-02-22T11:17:08.288Z,100595.41
2019-02-22T11:20:22.105Z,100599.94
2019-02-22T11:23:35.628Z,100604.53
2019-02-22T11:26:49.096Z,100601.73
2019-02-22T11:30:03.390Z,100604.41
2019-02-22T11:33:16.863Z,100608.31
2019-02-22T11:36:30.458Z,100602.92
2019-02-22T11:39:43.996Z,100603.64
2019-02-22T11:42:57.509Z,100606.34
2019-02-22T11:46:11.014Z,100613.05
2019-02-22T11:49:24.487Z,100614.62
2019-02-22T11:52:38.202Z,100616.27
2019-02-22T11:55:51.993Z,100609.70
2019-02-22T11:59:05.562Z,100617.20
2019-02-22T12:02:19.037Z,100616.96
2019-02-22T12:05:33.145Z,100608.14
2019-02-22T12:08:46.644Z,100609.35
2019-02-22T12:12:00.540Z,100617.02
2019-02-22T12:15:14.015Z,100598.34
2019-02-22T12:18:27.490Z,100598.70
2019-02-22T12:21:40.961Z,100602.04
2019-02-22T12:24:54.665Z,100604.02
2019-02-22T12:28:08.251Z,100607.45
2019-02-22T12:31:21.820Z,100609.23
2019-02-22T12:34:35.573Z,100612.58
2019-02-22T12:37:49.766Z,100625.34
2019-02-22T12:41:03.403Z,100626.87
2019-02-22T12:44:16.903Z,100631.23
2019-02-22T12:47:30.400Z,100627.63
2019-02-22T12:50:43.880Z,100636.02
2019-02-22T12:53:57.330Z,100633.41
2019-02-22T12:57:10.796Z,100642.10
2019-02-22T13:00:24.604Z,100643.66
2019-02-22T13:03:38.109Z,100649.38
2019-02-22T13:06:51.574Z,100647.03
2019-02-22T13:10:06.013Z,100643.36
2019-02-22T13:13:19.484Z,100648.38
2019-02-22T13:16:33.069Z,100640.73
2019-02-22T13:19:46.876Z,100640.03
2019-02-22T13:23:00.382Z,100629.47
2019-02-22T13:26:14.333Z,100639.64
2019-02-22T13:29:27.824Z,100642.94
2019-02-22T13:32:41.298Z,100642.21
2019-02-22T13:35:54.955Z,100644.02
2019-02-22T13:39:09.075Z,100642.96
2019-02-22T13:42:23.124Z,100630.64
2019-02-22T13:45:36.895Z,100625.42
2019-02-22T13:48:50.381Z,100623.98
2019-02-22T13:52:04.171Z,100630.44
2019-02-22T13:55:17.650Z,100637.96
2019-02-22T13:58:31.146Z,100647.52
2019-02-22T14:01:44.814Z,100656.70
2019-02-22T14:04:58.271Z,100660.90
2019-02-22T14:08:12.007Z,100660.69
2019-02-22T14:11:25.464Z,100667.42
2019-02-22T14:14:38.941Z,100668.55
2019-02-22T14:17:52.425Z,100666.95
2019-02-22T14:21:05.895Z,100667.54
2019-02-22T14:24:19.364Z,100673.32
2019-02-22T14:27:32.827Z,100673.69
2019-02-22T14:30:46.814Z,100677.01
2019-02-22T14:34:00.294Z,100678.30
2019-02-22T14:37:13.805Z,100676.63
2019-02-22T14:40:27.247Z,100681.76
2019-02-22T14:43:40.720Z,100688.45
2019-02-22T14:46:55.123Z,100686.42
2019-02-22T14:50:10.915Z,100696.65
2019-02-22T14:53:24.377Z,100695.41
2019-02-22T14:56:37.844Z,100698.67
2019-02-22T14:59:51.307Z,100696.09
2019-02-22T15:03:05.081Z,100700.47
2019-02-22T15:06:18.797Z,100705.34
2019-02-22T15:09:32.525Z,100698.84
2019-02-22T15:12:50.228Z,100699.28
2019-02-22T15:16:23.461Z,100705.05
2019-02-22T15:19:37.207Z,100697.64
2019-02-22T15:22:50.879Z,100697.64
2019-02-22T15:26:04.489Z,100707.19
2019-02-22T15:29:17.979Z,100711.06
2019-02-22T15:32:31.441Z,100710.38
2019-02-22T15:35:45.168Z,100708.92
2019-02-22T15:38:58.668Z,100718.27
2019-02-22T15:42:12.259Z,100716.98
2019-02-22T15:45:26.009Z,100725.81
2019-02-22T15:48:39.460Z,100715.03
2019-02-22T15:51:53.243Z,100714.66
2019-02-22T15:55:07.276Z,100719.89
2019-02-22T15:58:20.740Z,100716.09
2019-02-22T16:01:34.218Z,100700.11
2019-02-22T16:05:01.121Z,100709.87
2019-02-22T16:08:14.921Z,100718.43
2019-02-22T16:11:28.484Z,100719.80
2019-02-22T16:14:42.056Z,100724.39
2019-02-22T16:17:55.984Z,100729.08
2019-02-22T16:21:09.454Z,100726.25
2019-02-22T16:24:23.202Z,100723.50
2019-02-22T16:27:36.775Z,100723.67
2019-02-22T16:30:50.943Z,100717.66
2019-02-22T16:34:04.498Z,100717.53
2019-02-22T16:37:18.798Z,100718.30
2019-02-22T16:40:32.256Z,100718.44
2019-02-22T16:43:45.705Z,100723.75
2019-02-22T16:46:59.478Z,100722.16
2019-02-22T16:50:13.184Z,100724.34
2019-02-22T16:53:26.799Z,100729.06
2019-02-22T16:56:40.260Z,100731.95
2019-02-22T16:59:53.759Z,100725.13
2019-02-22T17:03:07.340Z,100719.98
2019-02-22T17:06:20.894Z,100721.70
2019-02-22T17:09:34.350Z,100721.17
2019-02-22T17:12:48.376Z,100724.11
2019-02-22T17:16:01.833Z,100717.61
2019-02-22T17:19:15.617Z,100720.02
2019-02-22T17:22:29.072Z,100726.11
2019-02-22T17:25:42.554Z,100722.08
2019-02-22T17:28:56.031Z,100729.95
2019-02-22T17:32:09.907Z,100732.83
2019-02-22T17:35:23.668Z,100738.33
2019-02-22T17:38:37.326Z,100742.73
2019-02-22T17:41:50.786Z,100752.28
2019-02-22T17:45:04.951Z,100753.77
2019-02-22T17:48:18.536Z,100749.39
2019-02-22T17:51:31.998Z,100758.83
2019-02-22T17:54:45.711Z,100761.51
2019-02-22T17:57:59.175Z,100767.45
2019-02-22T18:01:12.655Z,100771.12
2019-02-22T18:04:26.134Z,100769.89
2019-02-22T18:07:42.431Z,100785.44
2019-02-22T18:10:56.470Z,100789.84
2019-02-22T18:14:10.075Z,100790.78
2019-02-22T18:17:23.588Z,100785.47
2019-02-22T18:20:37.444Z,100782.73
2019-02-22T18:23:51.562Z,100787.67
2019-02-22T18:27:06.528Z,100798.99
2019-02-22T18:30:20.139Z,100803.70
2019-02-22T18:33:33.714Z,100796.77
2019-02-22T18:36:47.185Z,100795.26
2019-02-22T18:40:01.144Z,100796.70
2019-02-22T18:43:14.802Z,100797.62
2019-02-22T18:46:28.378Z,100801.42
2019-02-22T18:49:42.169Z,100807.73
2019-02-22T18:52:55.748Z,100811.46
2019-02-22T18:56:09.584Z,100825.66
2019-02-22T18:59:23.099Z,100827.56
2019-02-22T19:02:36.563Z,100834.11
2019-02-22T19:05:50.031Z,100832.99
2019-02-22T19:09:04.834Z,100832.41
2019-02-22T19:12:18.703Z,100827.92
2019-02-22T19:15:32.455Z,100837.98
2019-02-22T19:18:46.135Z,100841.38
2019-02-22T19:21:59.586Z,100845.73
2019-02-22T19:25:13.651Z,100842.16
2019-02-22T19:28:27.104Z,100849.95
2019-02-22T19:31:40.674Z,100851.34
2019-02-22T19:34:54.494Z,100852.00
2019-02-22T19:38:07.964Z,100858.61
2019-02-22T19:41:21.436Z,100854.66
2019-02-22T19:44:35.237Z,100860.49
2019-02-22T19:47:49.063Z,100860.37
2019-02-22T19:51:02.530Z,100865.59
2019-02-22T19:54:16.020Z,100872.26
2019-02-22T19:57:29.488Z,100872.93
2019-02-22T20:00:42.950Z,100882.33
2019-02-22T20:03:56.425Z,100884.27
2019-02-22T20:07:10.056Z,100883.44
2019-02-22T20:10:23.936Z,100881.20
2019-02-22T20:13:37.395Z,100888.73
2019-02-22T20:16:50.861Z,100891.91
2019-02-22T20:20:06.106Z,100888.92
2019-02-22T20:23:19.673Z,100893.98
2019-02-22T20:26:33.642Z,100894.64
2019-02-22T20:29:47.146Z,100889.38
2019-02-22T20:33:00.614Z,100895.52
2019-02-22T20:36:14.042Z,100906.55
2019-02-22T20:39:27.794Z,100909.71
2019-02-22T20:42:41.270Z,100905.70
2019-02-22T20:45:55.028Z,100906.58
2019-02-22T20:49:08.474Z,100911.44
2019-02-22T20:52:21.942Z,100913.14
2019-02-22T20:55:35.857Z,100923.91
2019-02-22T20:58:49.327Z,100920.78
2019-02-22T21:02:02.909Z,100920.66
2019-02-22T21:05:16.709Z,100916.16
2019-02-22T21:08:30.169Z,100914.89
2019-02-22T21:11:43.660Z,100926.46
2019-02-22T21:14:57.125Z,100924.06
2019-02-22T21:18:16.247Z,100924.84
2019-02-22T21:21:25.948Z,100928.75
2019-02-22T21:24:39.728Z,100923.53
2019-02-22T21:27:53.203Z,100921.28
2019-02-22T21:31:06.656Z,100926.72
2019-02-22T21:34:20.227Z,100923.67
2019-02-22T21:37:34.060Z,100930.70
2019-02-22T21:40:47.788Z,100924.36
2019-02-22T21:44:01.365Z,100927.33
2019-02-22T21:47:15.108Z,100924.78
2019-02-22T21:50:28.558Z,100915.11
2019-02-22T21:53:42.035Z,100921.23
2019-02-22T21:56:55.478Z,100924.62
2019-02-22T22:00:12.255Z,100911.34
2019-02-22T22:03:25.723Z,100909.95
2019-02-22T22:06:39.181Z,100913.07
2019-02-22T22:09:52.641Z,100910.44
2019-02-22T22:13:06.092Z,100909.28
2019-02-22T22:16:19.882Z,100907.11
2019-02-22T22:19:33.447Z,100905.06
2019-02-22T22:22:46.901Z,100904.05
2019-02-22T22:26:00.363Z,100891.35
2019-02-22T22:29:13.828Z,100888.40
2019-02-22T22:32:27.946Z,100882.70
2019-02-22T22:35:41.549Z,100883.75
2019-02-22T22:38:55.277Z,100878.13
2019-02-22T22:42:08.743Z,100880.08
2019-02-22T22:45:22.257Z,100883.81
2019-02-22T22:48:35.778Z,100884.66
2019-02-22T22:51:49.477Z,100893.02
2019-02-22T22:55:03.058Z,100898.37
2019-02-22T22:58:16.603Z,100906.17
2019-02-22T23:01:32.651Z,100905.98
2019-02-22T23:04:46.320Z,100910.59
2019-02-22T23:07:59.795Z,100909.20
2019-02-22T23:11:13.381Z,100911.86
2019-02-22T23:14:26.832Z,100913.48
2019-02-22T23:17:40.292Z,100917.48
2019-02-22T23:20:53.869Z,100921.31
2019-02-22T23:24:07.415Z,100921.86
2019-02-22T23:27:20.890Z,100931.82
2019-02-22T23:30:34.346Z,100939.78
2019-02-22T23:33:48.031Z,100949.58
2019-02-22T23:37:01.512Z,100958.30
2019-02-22T23:40:15.082Z,100966.92
2019-02-22T23:43:28.531Z,100969.75
2019-02-22T23:46:42.278Z,100962.58
2019-02-22T23:49:55.834Z,100973.72
2019-02-22T23:53:09.580Z,100979.76
2019-02-22T23:56:23.038Z,100987.36
2019-02-22T23:59:36.483Z,100989.00
